South Charleston, Ohio
Current Conditions -  °F | °C
As of 4:56 AM on Thursday 29 Jan 2015 (Local Time) from KSGH Reporting Station
Clear Clear  
Wind Chill: 21°   Ceiling: Unl
Heat Index: 30°   Visibility: 10mi
Dew Point: 22°   Wind: 12mph
Humidity: 72%   Direction: 150°SSE
Pressure: 29.96"   Gusts: NA
Location:  39.83°N, 83.63°W
Report Text: KSGH 290956Z AUTO 15010KT 10SM CLR M01/M06 A2996 RMK AO2 T10111055 SLP156
Loading
Personal Weather Stations






























Interactive Weather Map New forecast layout! Learn more

10-Day Weather Forecast

Advertisements
Track Severe Weather on mobile